sensor_id;sensor_type;location;lat;lon;timestamp;P1;durP1;ratioP1;P2;durP2;ratioP2
38222;SDS011;24024;51.186;6.458;2023-09-07T00:01:21;6.75;;;4.60;;
38222;SDS011;24024;51.186;6.458;2023-09-07T00:03:48;6.00;;;4.53;;
38222;SDS011;24024;51.186;6.458;2023-09-07T00:06:14;8.27;;;4.70;;
38222;SDS011;24024;51.186;6.458;2023-09-07T00:08:44;7.10;;;4.78;;
38222;SDS011;24024;51.186;6.458;2023-09-07T00:11:11;6.50;;;4.57;;
38222;SDS011;24024;51.186;6.458;2023-09-07T00:13:37;8.38;;;4.50;;
38222;SDS011;24024;51.186;6.458;2023-09-07T00:16:05;5.95;;;4.35;;
38222;SDS011;24024;51.186;6.458;2023-09-07T00:18:32;6.57;;;4.70;;
38222;SDS011;24024;51.186;6.458;2023-09-07T00:21:01;8.55;;;4.55;;
38222;SDS011;24024;51.186;6.458;2023-09-07T00:23:28;8.35;;;4.45;;
38222;SDS011;24024;51.186;6.458;2023-09-07T00:25:58;6.97;;;4.93;;
38222;SDS011;24024;51.186;6.458;2023-09-07T00:28:25;7.20;;;4.47;;
38222;SDS011;24024;51.186;6.458;2023-09-07T00:30:52;7.68;;;4.70;;
38222;SDS011;24024;51.186;6.458;2023-09-07T00:33:18;7.30;;;4.35;;
38222;SDS011;24024;51.186;6.458;2023-09-07T00:35:45;7.25;;;4.32;;
38222;SDS011;24024;51.186;6.458;2023-09-07T00:38:14;6.38;;;4.25;;
38222;SDS011;24024;51.186;6.458;2023-09-07T00:40:44;7.18;;;4.40;;
38222;SDS011;24024;51.186;6.458;2023-09-07T00:43:11;8.30;;;4.57;;
38222;SDS011;24024;51.186;6.458;2023-09-07T00:45:39;6.72;;;4.68;;
38222;SDS011;24024;51.186;6.458;2023-09-07T00:48:06;6.50;;;4.60;;
38222;SDS011;24024;51.186;6.458;2023-09-07T00:50:33;5.93;;;4.35;;
38222;SDS011;24024;51.186;6.458;2023-09-07T00:53:00;6.25;;;4.40;;
38222;SDS011;24024;51.186;6.458;2023-09-07T00:55:32;6.55;;;4.40;;
38222;SDS011;24024;51.186;6.458;2023-09-07T00:58:03;6.45;;;4.97;;
38222;SDS011;24024;51.186;6.458;2023-09-07T01:00:30;7.32;;;4.40;;
38222;SDS011;24024;51.186;6.458;2023-09-07T01:02:58;7.07;;;4.35;;
38222;SDS011;24024;51.186;6.458;2023-09-07T01:05:39;6.35;;;4.10;;
38222;SDS011;24024;51.186;6.458;2023-09-07T01:08:24;7.75;;;4.22;;
38222;SDS011;24024;51.186;6.458;2023-09-07T01:11:00;7.50;;;4.35;;
38222;SDS011;24024;51.186;6.458;2023-09-07T01:13:27;7.20;;;4.03;;
38222;SDS011;24024;51.186;6.458;2023-09-07T01:15:56;6.65;;;4.25;;
38222;SDS011;24024;51.186;6.458;2023-09-07T01:18:23;7.45;;;4.43;;
38222;SDS011;24024;51.186;6.458;2023-09-07T01:20:51;6.65;;;4.57;;
38222;SDS011;24024;51.186;6.458;2023-09-07T01:23:21;9.02;;;4.28;;
38222;SDS011;24024;51.186;6.458;2023-09-07T01:25:48;7.57;;;4.40;;
38222;SDS011;24024;51.186;6.458;2023-09-07T01:28:19;7.68;;;4.47;;
38222;SDS011;24024;51.186;6.458;2023-09-07T01:30:47;6.10;;;4.18;;
38222;SDS011;24024;51.186;6.458;2023-09-07T01:33:16;8.15;;;4.72;;
38222;SDS011;24024;51.186;6.458;2023-09-07T01:35:43;7.03;;;4.03;;
38222;SDS011;24024;51.186;6.458;2023-09-07T01:38:14;7.03;;;4.25;;
38222;SDS011;24024;51.186;6.458;2023-09-07T01:40:42;6.78;;;4.43;;
38222;SDS011;24024;51.186;6.458;2023-09-07T01:43:09;8.18;;;4.57;;
38222;SDS011;24024;51.186;6.458;2023-09-07T01:45:36;7.35;;;4.28;;
38222;SDS011;24024;51.186;6.458;2023-09-07T01:48:03;6.93;;;3.78;;
38222;SDS011;24024;51.186;6.458;2023-09-07T01:50:32;7.30;;;4.18;;
38222;SDS011;24024;51.186;6.458;2023-09-07T01:52:58;6.00;;;4.18;;
38222;SDS011;24024;51.186;6.458;2023-09-07T01:55:27;5.65;;;4.22;;
38222;SDS011;24024;51.186;6.458;2023-09-07T01:57:56;5.78;;;3.78;;
38222;SDS011;24024;51.186;6.458;2023-09-07T02:00:23;7.50;;;4.28;;
38222;SDS011;24024;51.186;6.458;2023-09-07T02:02:50;6.70;;;4.43;;
38222;SDS011;24024;51.186;6.458;2023-09-07T02:05:22;6.90;;;4.75;;
38222;SDS011;24024;51.186;6.458;2023-09-07T02:07:49;6.03;;;4.45;;
38222;SDS011;24024;51.186;6.458;2023-09-07T02:10:18;8.35;;;4.60;;
38222;SDS011;24024;51.186;6.458;2023-09-07T02:12:49;7.38;;;4.35;;
38222;SDS011;24024;51.186;6.458;2023-09-07T02:15:18;7.32;;;4.53;;
38222;SDS011;24024;51.186;6.458;2023-09-07T02:17:45;9.40;;;4.50;;
38222;SDS011;24024;51.186;6.458;2023-09-07T02:20:12;7.68;;;4.50;;
38222;SDS011;24024;51.186;6.458;2023-09-07T02:22:39;8.02;;;4.57;;
38222;SDS011;24024;51.186;6.458;2023-09-07T02:25:06;7.78;;;4.55;;
38222;SDS011;24024;51.186;6.458;2023-09-07T02:27:36;6.47;;;4.65;;
38222;SDS011;24024;51.186;6.458;2023-09-07T02:30:03;8.18;;;4.85;;
38222;SDS011;24024;51.186;6.458;2023-09-07T02:32:33;7.45;;;4.68;;
38222;SDS011;24024;51.186;6.458;2023-09-07T02:35:00;9.02;;;4.88;;
38222;SDS011;24024;51.186;6.458;2023-09-07T02:37:29;7.47;;;4.53;;
38222;SDS011;24024;51.186;6.458;2023-09-07T02:39:56;6.68;;;5.10;;
38222;SDS011;24024;51.186;6.458;2023-09-07T02:42:25;9.57;;;4.50;;
38222;SDS011;24024;51.186;6.458;2023-09-07T02:44:52;6.97;;;4.63;;
38222;SDS011;24024;51.186;6.458;2023-09-07T02:47:21;6.80;;;4.75;;
38222;SDS011;24024;51.186;6.458;2023-09-07T02:49:50;6.53;;;4.55;;
38222;SDS011;24024;51.186;6.458;2023-09-07T02:52:17;6.63;;;4.75;;
38222;SDS011;24024;51.186;6.458;2023-09-07T02:54:44;7.05;;;4.95;;
38222;SDS011;24024;51.186;6.458;2023-09-07T02:57:13;7.05;;;4.70;;
38222;SDS011;24024;51.186;6.458;2023-09-07T02:59:39;7.80;;;4.50;;
38222;SDS011;24024;51.186;6.458;2023-09-07T03:02:06;7.05;;;4.93;;
38222;SDS011;24024;51.186;6.458;2023-09-07T03:04:33;7.80;;;4.65;;
38222;SDS011;24024;51.186;6.458;2023-09-07T03:07:00;6.55;;;4.38;;
38222;SDS011;24024;51.186;6.458;2023-09-07T03:09:28;6.22;;;4.63;;
38222;SDS011;24024;51.186;6.458;2023-09-07T03:11:55;8.10;;;4.80;;
38222;SDS011;24024;51.186;6.458;2023-09-07T03:14:23;8.23;;;4.95;;
38222;SDS011;24024;51.186;6.458;2023-09-07T03:16:52;6.35;;;4.90;;
38222;SDS011;24024;51.186;6.458;2023-09-07T03:19:20;7.25;;;5.40;;
38222;SDS011;24024;51.186;6.458;2023-09-07T03:21:47;9.32;;;4.68;;
38222;SDS011;24024;51.186;6.458;2023-09-07T03:24:16;6.93;;;4.65;;
38222;SDS011;24024;51.186;6.458;2023-09-07T03:26:46;7.55;;;4.63;;
38222;SDS011;24024;51.186;6.458;2023-09-07T03:29:13;8.20;;;4.22;;
38222;SDS011;24024;51.186;6.458;2023-09-07T03:31:40;5.68;;;4.18;;
38222;SDS011;24024;51.186;6.458;2023-09-07T03:34:06;6.78;;;4.50;;
38222;SDS011;24024;51.186;6.458;2023-09-07T03:36:35;7.20;;;4.70;;
38222;SDS011;24024;51.186;6.458;2023-09-07T03:39:02;8.57;;;5.35;;
38222;SDS011;24024;51.186;6.458;2023-09-07T03:41:29;6.43;;;4.55;;
38222;SDS011;24024;51.186;6.458;2023-09-07T03:43:57;7.10;;;4.43;;
38222;SDS011;24024;51.186;6.458;2023-09-07T03:46:23;8.45;;;4.80;;
38222;SDS011;24024;51.186;6.458;2023-09-07T03:48:50;8.30;;;4.40;;
38222;SDS011;24024;51.186;6.458;2023-09-07T03:51:19;7.75;;;5.93;;
38222;SDS011;24024;51.186;6.458;2023-09-07T03:53:48;7.72;;;5.07;;
38222;SDS011;24024;51.186;6.458;2023-09-07T03:56:15;8.05;;;4.28;;
38222;SDS011;24024;51.186;6.458;2023-09-07T03:58:47;8.80;;;4.47;;
38222;SDS011;24024;51.186;6.458;2023-09-07T04:01:16;7.38;;;4.60;;
38222;SDS011;24024;51.186;6.458;2023-09-07T04:03:42;6.57;;;4.40;;
38222;SDS011;24024;51.186;6.458;2023-09-07T04:06:09;7.43;;;4.30;;
38222;SDS011;24024;51.186;6.458;2023-09-07T04:08:39;8.80;;;4.38;;
38222;SDS011;24024;51.186;6.458;2023-09-07T04:11:05;6.53;;;4.45;;
38222;SDS011;24024;51.186;6.458;2023-09-07T04:13:35;7.38;;;4.68;;
38222;SDS011;24024;51.186;6.458;2023-09-07T04:16:02;8.13;;;4.20;;
38222;SDS011;24024;51.186;6.458;2023-09-07T04:18:31;7.03;;;4.25;;
38222;SDS011;24024;51.186;6.458;2023-09-07T04:21:07;7.18;;;4.35;;
38222;SDS011;24024;51.186;6.458;2023-09-07T04:23:37;6.57;;;4.30;;
38222;SDS011;24024;51.186;6.458;2023-09-07T04:26:06;11.80;;;5.00;;
38222;SDS011;24024;51.186;6.458;2023-09-07T04:28:34;7.72;;;4.38;;
38222;SDS011;24024;51.186;6.458;2023-09-07T04:31:01;9.23;;;5.03;;
38222;SDS011;24024;51.186;6.458;2023-09-07T04:33:30;5.80;;;3.90;;
38222;SDS011;24024;51.186;6.458;2023-09-07T04:36:05;7.30;;;4.88;;
38222;SDS011;24024;51.186;6.458;2023-09-07T04:38:36;7.55;;;5.22;;
38222;SDS011;24024;51.186;6.458;2023-09-07T04:41:09;8.27;;;5.10;;
38222;SDS011;24024;51.186;6.458;2023-09-07T04:43:41;7.65;;;4.53;;
38222;SDS011;24024;51.186;6.458;2023-09-07T04:46:13;7.40;;;4.70;;
38222;SDS011;24024;51.186;6.458;2023-09-07T04:48:40;7.30;;;5.03;;
38222;SDS011;24024;51.186;6.458;2023-09-07T04:51:10;9.43;;;4.82;;
38222;SDS011;24024;51.186;6.458;2023-09-07T04:53:38;11.02;;;4.78;;
38222;SDS011;24024;51.186;6.458;2023-09-07T04:56:06;7.22;;;4.93;;
38222;SDS011;24024;51.186;6.458;2023-09-07T04:58:38;6.65;;;4.72;;
38222;SDS011;24024;51.186;6.458;2023-09-07T05:01:11;8.32;;;4.43;;
38222;SDS011;24024;51.186;6.458;2023-09-07T05:03:38;7.50;;;4.40;;
38222;SDS011;24024;51.186;6.458;2023-09-07T05:06:11;9.05;;;4.90;;
38222;SDS011;24024;51.186;6.458;2023-09-07T05:08:37;7.68;;;4.72;;
38222;SDS011;24024;51.186;6.458;2023-09-07T05:11:04;7.72;;;4.50;;
38222;SDS011;24024;51.186;6.458;2023-09-07T05:13:31;6.45;;;4.40;;
38222;SDS011;24024;51.186;6.458;2023-09-07T05:15:58;7.88;;;4.90;;
38222;SDS011;24024;51.186;6.458;2023-09-07T05:18:28;7.18;;;4.88;;
38222;SDS011;24024;51.186;6.458;2023-09-07T05:20:58;7.30;;;5.10;;
38222;SDS011;24024;51.186;6.458;2023-09-07T05:23:24;6.95;;;4.10;;
38222;SDS011;24024;51.186;6.458;2023-09-07T05:25:53;7.15;;;4.22;;
38222;SDS011;24024;51.186;6.458;2023-09-07T05:28:23;9.02;;;4.60;;
38222;SDS011;24024;51.186;6.458;2023-09-07T05:30:49;5.72;;;4.28;;
38222;SDS011;24024;51.186;6.458;2023-09-07T05:33:17;7.63;;;5.13;;
38222;SDS011;24024;51.186;6.458;2023-09-07T05:35:46;7.68;;;4.53;;
38222;SDS011;24024;51.186;6.458;2023-09-07T05:38:15;6.07;;;4.07;;
38222;SDS011;24024;51.186;6.458;2023-09-07T05:40:44;6.68;;;4.18;;
38222;SDS011;24024;51.186;6.458;2023-09-07T05:43:13;6.68;;;4.40;;
38222;SDS011;24024;51.186;6.458;2023-09-07T05:45:40;6.90;;;4.50;;
38222;SDS011;24024;51.186;6.458;2023-09-07T05:48:10;9.60;;;5.30;;
38222;SDS011;24024;51.186;6.458;2023-09-07T05:50:40;12.13;;;5.18;;
38222;SDS011;24024;51.186;6.458;2023-09-07T05:53:09;8.13;;;4.50;;
38222;SDS011;24024;51.186;6.458;2023-09-07T05:55:38;8.25;;;4.45;;
38222;SDS011;24024;51.186;6.458;2023-09-07T05:58:07;9.93;;;4.95;;
38222;SDS011;24024;51.186;6.458;2023-09-07T06:00:35;9.90;;;5.15;;
38222;SDS011;24024;51.186;6.458;2023-09-07T06:03:02;8.25;;;5.03;;
38222;SDS011;24024;51.186;6.458;2023-09-07T06:05:30;7.82;;;4.80;;
38222;SDS011;24024;51.186;6.458;2023-09-07T06:08:00;10.80;;;5.13;;
38222;SDS011;24024;51.186;6.458;2023-09-07T06:10:29;10.30;;;5.13;;
38222;SDS011;24024;51.186;6.458;2023-09-07T06:12:58;9.13;;;4.85;;
38222;SDS011;24024;51.186;6.458;2023-09-07T06:15:31;11.50;;;5.03;;
38222;SDS011;24024;51.186;6.458;2023-09-07T06:17:58;10.27;;;4.75;;
38222;SDS011;24024;51.186;6.458;2023-09-07T06:20:28;7.95;;;4.68;;
38222;SDS011;24024;51.186;6.458;2023-09-07T06:22:59;9.45;;;4.93;;
38222;SDS011;24024;51.186;6.458;2023-09-07T06:25:28;10.73;;;5.15;;
38222;SDS011;24024;51.186;6.458;2023-09-07T06:27:55;10.38;;;4.93;;
38222;SDS011;24024;51.186;6.458;2023-09-07T06:30:22;10.15;;;4.72;;
38222;SDS011;24024;51.186;6.458;2023-09-07T06:32:52;9.88;;;5.00;;
38222;SDS011;24024;51.186;6.458;2023-09-07T06:35:19;9.70;;;5.05;;
38222;SDS011;24024;51.186;6.458;2023-09-07T06:37:46;8.10;;;4.75;;
38222;SDS011;24024;51.186;6.458;2023-09-07T06:40:15;9.90;;;4.30;;
38222;SDS011;24024;51.186;6.458;2023-09-07T06:42:44;8.60;;;4.30;;
38222;SDS011;24024;51.186;6.458;2023-09-07T06:45:15;8.13;;;3.97;;
38222;SDS011;24024;51.186;6.458;2023-09-07T06:47:43;7.93;;;4.18;;
38222;SDS011;24024;51.186;6.458;2023-09-07T06:50:10;7.18;;;4.20;;
38222;SDS011;24024;51.186;6.458;2023-09-07T06:52:39;6.68;;;4.20;;
38222;SDS011;24024;51.186;6.458;2023-09-07T06:55:08;6.13;;;3.78;;
38222;SDS011;24024;51.186;6.458;2023-09-07T06:57:35;7.18;;;4.07;;
38222;SDS011;24024;51.186;6.458;2023-09-07T07:00:04;6.72;;;4.20;;
38222;SDS011;24024;51.186;6.458;2023-09-07T07:02:32;7.25;;;3.80;;
38222;SDS011;24024;51.186;6.458;2023-09-07T07:05:02;6.85;;;4.28;;
38222;SDS011;24024;51.186;6.458;2023-09-07T07:07:29;7.68;;;4.00;;
38222;SDS011;24024;51.186;6.458;2023-09-07T07:09:56;8.75;;;4.40;;
38222;SDS011;24024;51.186;6.458;2023-09-07T07:12:25;7.28;;;4.07;;
38222;SDS011;24024;51.186;6.458;2023-09-07T07:14:53;6.70;;;3.28;;
38222;SDS011;24024;51.186;6.458;2023-09-07T07:17:22;6.72;;;3.80;;
38222;SDS011;24024;51.186;6.458;2023-09-07T07:19:49;6.85;;;3.70;;
38222;SDS011;24024;51.186;6.458;2023-09-07T07:22:16;7.47;;;4.03;;
38222;SDS011;24024;51.186;6.458;2023-09-07T07:24:47;6.00;;;3.50;;
38222;SDS011;24024;51.186;6.458;2023-09-07T07:27:16;5.63;;;3.30;;
38222;SDS011;24024;51.186;6.458;2023-09-07T07:29:46;7.95;;;3.80;;
38222;SDS011;24024;51.186;6.458;2023-09-07T07:32:15;5.47;;;3.65;;
38222;SDS011;24024;51.186;6.458;2023-09-07T07:34:42;7.25;;;3.42;;
38222;SDS011;24024;51.186;6.458;2023-09-07T07:37:09;6.28;;;3.42;;
38222;SDS011;24024;51.186;6.458;2023-09-07T07:39:36;7.15;;;3.90;;
38222;SDS011;24024;51.186;6.458;2023-09-07T07:42:03;6.20;;;3.83;;
38222;SDS011;24024;51.186;6.458;2023-09-07T07:44:32;6.72;;;3.50;;
38222;SDS011;24024;51.186;6.458;2023-09-07T07:47:01;6.28;;;3.80;;
38222;SDS011;24024;51.186;6.458;2023-09-07T07:49:30;4.70;;;3.30;;
38222;SDS011;24024;51.186;6.458;2023-09-07T07:52:01;7.72;;;3.00;;
38222;SDS011;24024;51.186;6.458;2023-09-07T07:54:28;5.03;;;3.72;;
38222;SDS011;24024;51.186;6.458;2023-09-07T07:56:55;4.80;;;3.42;;
38222;SDS011;24024;51.186;6.458;2023-09-07T07:59:24;4.53;;;3.20;;
38222;SDS011;24024;51.186;6.458;2023-09-07T08:01:51;5.22;;;3.20;;
38222;SDS011;24024;51.186;6.458;2023-09-07T08:04:18;5.97;;;3.35;;
38222;SDS011;24024;51.186;6.458;2023-09-07T08:06:46;5.30;;;3.17;;
38222;SDS011;24024;51.186;6.458;2023-09-07T08:09:12;5.35;;;3.47;;
38222;SDS011;24024;51.186;6.458;2023-09-07T08:11:40;5.30;;;3.38;;
38222;SDS011;24024;51.186;6.458;2023-09-07T08:14:10;7.18;;;3.50;;
38222;SDS011;24024;51.186;6.458;2023-09-07T08:16:37;4.88;;;3.25;;
38222;SDS011;24024;51.186;6.458;2023-09-07T08:19:06;6.07;;;3.50;;
38222;SDS011;24024;51.186;6.458;2023-09-07T08:21:35;7.47;;;3.40;;
38222;SDS011;24024;51.186;6.458;2023-09-07T08:24:03;7.28;;;3.50;;
38222;SDS011;24024;51.186;6.458;2023-09-07T08:26:31;4.85;;;3.30;;
38222;SDS011;24024;51.186;6.458;2023-09-07T08:28:58;6.97;;;3.40;;
38222;SDS011;24024;51.186;6.458;2023-09-07T08:31:25;5.78;;;3.47;;
38222;SDS011;24024;51.186;6.458;2023-09-07T08:33:52;5.45;;;3.80;;
38222;SDS011;24024;51.186;6.458;2023-09-07T08:36:21;9.77;;;4.20;;
38222;SDS011;24024;51.186;6.458;2023-09-07T08:38:50;6.90;;;3.65;;
38222;SDS011;24024;51.186;6.458;2023-09-07T08:41:20;7.32;;;3.80;;
38222;SDS011;24024;51.186;6.458;2023-09-07T08:43:49;7.00;;;3.70;;
38222;SDS011;24024;51.186;6.458;2023-09-07T08:46:19;6.43;;;3.47;;
38222;SDS011;24024;51.186;6.458;2023-09-07T08:48:49;4.65;;;3.20;;
38222;SDS011;24024;51.186;6.458;2023-09-07T08:51:17;7.88;;;3.75;;
38222;SDS011;24024;51.186;6.458;2023-09-07T08:56:16;5.90;;;4.00;;
38222;SDS011;24024;51.186;6.458;2023-09-07T08:58:45;6.07;;;3.67;;
38222;SDS011;24024;51.186;6.458;2023-09-07T09:01:15;6.60;;;3.70;;
38222;SDS011;24024;51.186;6.458;2023-09-07T09:03:43;5.72;;;3.55;;
38222;SDS011;24024;51.186;6.458;2023-09-07T09:06:12;6.97;;;3.55;;
38222;SDS011;24024;51.186;6.458;2023-09-07T09:08:45;7.80;;;3.35;;
38222;SDS011;24024;51.186;6.458;2023-09-07T09:11:23;7.43;;;3.47;;
38222;SDS011;24024;51.186;6.458;2023-09-07T09:13:51;5.28;;;3.47;;
38222;SDS011;24024;51.186;6.458;2023-09-07T09:16:20;4.82;;;3.67;;
38222;SDS011;24024;51.186;6.458;2023-09-07T09:18:48;5.35;;;3.50;;
38222;SDS011;24024;51.186;6.458;2023-09-07T09:21:25;4.97;;;3.33;;
38222;SDS011;24024;51.186;6.458;2023-09-07T09:23:53;6.00;;;3.65;;
38222;SDS011;24024;51.186;6.458;2023-09-07T09:26:26;8.03;;;4.00;;
38222;SDS011;24024;51.186;6.458;2023-09-07T09:28:56;6.30;;;3.60;;
38222;SDS011;24024;51.186;6.458;2023-09-07T09:31:23;6.25;;;3.88;;
38222;SDS011;24024;51.186;6.458;2023-09-07T09:33:53;5.97;;;3.83;;
38222;SDS011;24024;51.186;6.458;2023-09-07T09:36:20;5.50;;;3.78;;
38222;SDS011;24024;51.186;6.458;2023-09-07T09:38:51;6.20;;;4.07;;
38222;SDS011;24024;51.186;6.458;2023-09-07T09:41:20;4.95;;;3.65;;
38222;SDS011;24024;51.186;6.458;2023-09-07T09:43:47;8.90;;;4.22;;
38222;SDS011;24024;51.186;6.458;2023-09-07T09:46:18;4.65;;;3.40;;
38222;SDS011;24024;51.186;6.458;2023-09-07T09:48:44;6.40;;;3.72;;
38222;SDS011;24024;51.186;6.458;2023-09-07T09:51:11;5.22;;;3.50;;
38222;SDS011;24024;51.186;6.458;2023-09-07T09:53:42;5.75;;;3.75;;
38222;SDS011;24024;51.186;6.458;2023-09-07T09:56:10;7.22;;;3.95;;
38222;SDS011;24024;51.186;6.458;2023-09-07T09:58:39;7.40;;;3.60;;
38222;SDS011;24024;51.186;6.458;2023-09-07T10:01:06;8.15;;;4.00;;
38222;SDS011;24024;51.186;6.458;2023-09-07T10:03:42;9.48;;;4.20;;
38222;SDS011;24024;51.186;6.458;2023-09-07T10:09:21;7.22;;;4.25;;
38222;SDS011;24024;51.186;6.458;2023-09-07T10:11:43;10.40;;;4.13;;
38222;SDS011;24024;51.186;6.458;2023-09-07T10:14:17;6.90;;;3.63;;
38222;SDS011;24024;51.186;6.458;2023-09-07T10:16:48;6.30;;;4.13;;
38222;SDS011;24024;51.186;6.458;2023-09-07T10:19:20;6.57;;;3.75;;
38222;SDS011;24024;51.186;6.458;2023-09-07T10:21:48;5.60;;;3.00;;
38222;SDS011;24024;51.186;6.458;2023-09-07T10:27:27;5.22;;;3.35;;
38222;SDS011;24024;51.186;6.458;2023-09-07T10:29:50;5.82;;;3.50;;
38222;SDS011;24024;51.186;6.458;2023-09-07T10:32:24;6.57;;;3.83;;
38222;SDS011;24024;51.186;6.458;2023-09-07T10:34:51;6.00;;;3.60;;
38222;SDS011;24024;51.186;6.458;2023-09-07T10:37:20;5.30;;;3.30;;
38222;SDS011;24024;51.186;6.458;2023-09-07T10:39:57;6.05;;;3.38;;
38222;SDS011;24024;51.186;6.458;2023-09-07T10:42:24;6.50;;;3.70;;
38222;SDS011;24024;51.186;6.458;2023-09-07T10:44:52;5.90;;;3.28;;
38222;SDS011;24024;51.186;6.458;2023-09-07T10:47:24;5.72;;;3.40;;
38222;SDS011;24024;51.186;6.458;2023-09-07T10:49:51;6.38;;;3.75;;
38222;SDS011;24024;51.186;6.458;2023-09-07T10:52:21;4.53;;;3.40;;
38222;SDS011;24024;51.186;6.458;2023-09-07T10:54:55;4.80;;;3.50;;
38222;SDS011;24024;51.186;6.458;2023-09-07T10:57:24;9.88;;;3.42;;
38222;SDS011;24024;51.186;6.458;2023-09-07T10:59:53;5.63;;;3.50;;
38222;SDS011;24024;51.186;6.458;2023-09-07T11:02:21;7.93;;;3.90;;
38222;SDS011;24024;51.186;6.458;2023-09-07T11:04:48;5.88;;;3.80;;
38222;SDS011;24024;51.186;6.458;2023-09-07T11:07:15;5.60;;;3.15;;
38222;SDS011;24024;51.186;6.458;2023-09-07T11:09:42;5.15;;;3.45;;
38222;SDS011;24024;51.186;6.458;2023-09-07T11:12:13;5.63;;;3.42;;
38222;SDS011;24024;51.186;6.458;2023-09-07T11:14:42;5.20;;;3.10;;
38222;SDS011;24024;51.186;6.458;2023-09-07T11:17:09;7.38;;;3.58;;
38222;SDS011;24024;51.186;6.458;2023-09-07T11:19:36;4.70;;;3.22;;
38222;SDS011;24024;51.186;6.458;2023-09-07T11:22:05;5.28;;;3.10;;
38222;SDS011;24024;51.186;6.458;2023-09-07T11:24:32;5.50;;;3.47;;
38222;SDS011;24024;51.186;6.458;2023-09-07T11:27:01;5.38;;;3.03;;
38222;SDS011;24024;51.186;6.458;2023-09-07T11:29:32;8.32;;;3.47;;
38222;SDS011;24024;51.186;6.458;2023-09-07T11:32:05;5.00;;;3.40;;
38222;SDS011;24024;51.186;6.458;2023-09-07T11:34:48;5.30;;;3.47;;
38222;SDS011;24024;51.186;6.458;2023-09-07T11:37:24;6.75;;;3.15;;
38222;SDS011;24024;51.186;6.458;2023-09-07T11:39:52;5.88;;;2.95;;
38222;SDS011;24024;51.186;6.458;2023-09-07T11:42:23;4.32;;;3.20;;
38222;SDS011;24024;51.186;6.458;2023-09-07T11:44:50;5.20;;;3.17;;
38222;SDS011;24024;51.186;6.458;2023-09-07T11:47:19;5.88;;;3.30;;
38222;SDS011;24024;51.186;6.458;2023-09-07T11:49:46;4.93;;;2.92;;
38222;SDS011;24024;51.186;6.458;2023-09-07T11:52:15;4.30;;;3.00;;
38222;SDS011;24024;51.186;6.458;2023-09-07T11:54:42;9.10;;;3.05;;
38222;SDS011;24024;51.186;6.458;2023-09-07T11:57:12;6.22;;;3.40;;
38222;SDS011;24024;51.186;6.458;2023-09-07T11:59:42;4.88;;;2.92;;
38222;SDS011;24024;51.186;6.458;2023-09-07T12:02:23;3.88;;;2.85;;
38222;SDS011;24024;51.186;6.458;2023-09-07T12:04:51;4.40;;;3.05;;
38222;SDS011;24024;51.186;6.458;2023-09-07T12:07:20;5.25;;;3.33;;
38222;SDS011;24024;51.186;6.458;2023-09-07T12:09:47;5.40;;;3.17;;
38222;SDS011;24024;51.186;6.458;2023-09-07T12:12:17;4.90;;;3.17;;
38222;SDS011;24024;51.186;6.458;2023-09-07T12:14:46;7.95;;;3.17;;
38222;SDS011;24024;51.186;6.458;2023-09-07T12:17:13;4.03;;;3.03;;
38222;SDS011;24024;51.186;6.458;2023-09-07T12:19:40;6.28;;;3.20;;
38222;SDS011;24024;51.186;6.458;2023-09-07T12:22:12;6.65;;;3.20;;
38222;SDS011;24024;51.186;6.458;2023-09-07T12:24:39;6.18;;;3.38;;
38222;SDS011;24024;51.186;6.458;2023-09-07T12:27:05;5.38;;;3.10;;
38222;SDS011;24024;51.186;6.458;2023-09-07T12:29:38;5.60;;;2.97;;
38222;SDS011;24024;51.186;6.458;2023-09-07T12:32:07;5.03;;;3.00;;
38222;SDS011;24024;51.186;6.458;2023-09-07T12:34:36;5.25;;;3.13;;
38222;SDS011;24024;51.186;6.458;2023-09-07T12:37:03;5.38;;;3.10;;
38222;SDS011;24024;51.186;6.458;2023-09-07T12:39:33;4.80;;;3.08;;
38222;SDS011;24024;51.186;6.458;2023-09-07T12:42:02;4.30;;;3.15;;
38222;SDS011;24024;51.186;6.458;2023-09-07T12:44:31;4.13;;;2.95;;
38222;SDS011;24024;51.186;6.458;2023-09-07T12:47:00;6.45;;;3.33;;
38222;SDS011;24024;51.186;6.458;2023-09-07T12:49:27;5.35;;;3.33;;
38222;SDS011;24024;51.186;6.458;2023-09-07T12:51:56;6.45;;;2.80;;
38222;SDS011;24024;51.186;6.458;2023-09-07T12:54:23;6.15;;;3.45;;
38222;SDS011;24024;51.186;6.458;2023-09-07T12:56:52;6.43;;;3.53;;
38222;SDS011;24024;51.186;6.458;2023-09-07T12:59:19;5.28;;;3.20;;
38222;SDS011;24024;51.186;6.458;2023-09-07T13:01:45;5.75;;;3.10;;
38222;SDS011;24024;51.186;6.458;2023-09-07T13:04:13;5.95;;;3.10;;
38222;SDS011;24024;51.186;6.458;2023-09-07T13:06:40;6.80;;;3.38;;
38222;SDS011;24024;51.186;6.458;2023-09-07T13:09:09;6.20;;;3.40;;
38222;SDS011;24024;51.186;6.458;2023-09-07T13:11:38;5.25;;;2.88;;
38222;SDS011;24024;51.186;6.458;2023-09-07T13:14:08;4.75;;;3.25;;
38222;SDS011;24024;51.186;6.458;2023-09-07T13:16:37;4.88;;;3.38;;
38222;SDS011;24024;51.186;6.458;2023-09-07T13:19:07;6.15;;;3.03;;
38222;SDS011;24024;51.186;6.458;2023-09-07T13:21:36;4.30;;;3.13;;
38222;SDS011;24024;51.186;6.458;2023-09-07T13:24:03;7.47;;;3.40;;
38222;SDS011;24024;51.186;6.458;2023-09-07T13:26:32;3.90;;;2.90;;
38222;SDS011;24024;51.186;6.458;2023-09-07T13:29:00;4.18;;;3.38;;
38222;SDS011;24024;51.186;6.458;2023-09-07T13:31:27;5.95;;;2.90;;
38222;SDS011;24024;51.186;6.458;2023-09-07T13:33:53;4.60;;;3.13;;
38222;SDS011;24024;51.186;6.458;2023-09-07T13:36:20;5.72;;;3.15;;
38222;SDS011;24024;51.186;6.458;2023-09-07T13:38:52;7.60;;;3.25;;
38222;SDS011;24024;51.186;6.458;2023-09-07T13:41:20;5.13;;;3.10;;
38222;SDS011;24024;51.186;6.458;2023-09-07T13:43:47;6.53;;;3.30;;
38222;SDS011;24024;51.186;6.458;2023-09-07T13:46:14;4.53;;;3.33;;
38222;SDS011;24024;51.186;6.458;2023-09-07T13:48:40;5.65;;;3.25;;
38222;SDS011;24024;51.186;6.458;2023-09-07T13:51:07;5.93;;;3.00;;
38222;SDS011;24024;51.186;6.458;2023-09-07T13:53:34;7.47;;;3.80;;
38222;SDS011;24024;51.186;6.458;2023-09-07T13:56:01;5.30;;;3.53;;
38222;SDS011;24024;51.186;6.458;2023-09-07T13:58:27;5.28;;;3.20;;
38222;SDS011;24024;51.186;6.458;2023-09-07T14:00:57;5.63;;;3.20;;
38222;SDS011;24024;51.186;6.458;2023-09-07T14:03:23;7.18;;;3.22;;
38222;SDS011;24024;51.186;6.458;2023-09-07T14:05:50;5.28;;;3.20;;
38222;SDS011;24024;51.186;6.458;2023-09-07T14:08:19;5.63;;;3.30;;
38222;SDS011;24024;51.186;6.458;2023-09-07T14:10:49;6.70;;;3.10;;
38222;SDS011;24024;51.186;6.458;2023-09-07T14:13:17;5.38;;;3.10;;
38222;SDS011;24024;51.186;6.458;2023-09-07T14:15:44;6.03;;;3.53;;
38222;SDS011;24024;51.186;6.458;2023-09-07T14:18:13;4.80;;;2.97;;
38222;SDS011;24024;51.186;6.458;2023-09-07T14:20:40;5.68;;;3.30;;
38222;SDS011;24024;51.186;6.458;2023-09-07T14:23:09;5.88;;;3.42;;
38222;SDS011;24024;51.186;6.458;2023-09-07T14:25:36;6.50;;;3.50;;
38222;SDS011;24024;51.186;6.458;2023-09-07T14:28:04;6.88;;;3.40;;
38222;SDS011;24024;51.186;6.458;2023-09-07T14:30:34;6.03;;;3.53;;
38222;SDS011;24024;51.186;6.458;2023-09-07T14:33:03;4.82;;;3.30;;
38222;SDS011;24024;51.186;6.458;2023-09-07T14:35:31;7.45;;;3.38;;
38222;SDS011;24024;51.186;6.458;2023-09-07T14:37:58;4.72;;;3.20;;
38222;SDS011;24024;51.186;6.458;2023-09-07T14:40:27;5.53;;;3.28;;
38222;SDS011;24024;51.186;6.458;2023-09-07T14:42:57;5.70;;;3.20;;
38222;SDS011;24024;51.186;6.458;2023-09-07T14:45:24;5.13;;;3.15;;
38222;SDS011;24024;51.186;6.458;2023-09-07T14:47:51;5.15;;;3.35;;
38222;SDS011;24024;51.186;6.458;2023-09-07T14:50:18;4.10;;;3.05;;
38222;SDS011;24024;51.186;6.458;2023-09-07T14:52:45;5.72;;;3.45;;
38222;SDS011;24024;51.186;6.458;2023-09-07T14:55:13;4.82;;;3.30;;
38222;SDS011;24024;51.186;6.458;2023-09-07T14:57:43;5.22;;;3.00;;
38222;SDS011;24024;51.186;6.458;2023-09-07T15:00:10;4.82;;;3.30;;
38222;SDS011;24024;51.186;6.458;2023-09-07T15:02:38;4.45;;;3.03;;
38222;SDS011;24024;51.186;6.458;2023-09-07T15:05:05;5.05;;;3.22;;